Mackeyville, Pennsylvania
Current Conditions -  °F | °C
As of 3:35 AM on Sunday 26 Oct 2014 (Local Time) from KUNV Reporting Station
Clear Clear  
Wind Chill: 53°   Ceiling: Unl
Heat Index: 53°   Visibility: 10mi
Dew Point: 34°   Wind: 16mph
Humidity: 49%   Direction: 300°WNW
Pressure: 29.71"   Gusts: 23mph
Location:  41.05°N, 77.46°W
Report Text: KUNV 260735Z AUTO 30014G20KT 10SM CLR 12/01 A2971 RMK AO2 T01160012
Loading
Personal Weather Stations






























Interactive Weather Map
Tropical Storm Tracking
New forecast layout! Learn more

10-Day Weather Forecast

Advertisements
Track Severe Weather on mobile